sensor_id;sensor_type;location;lat;lon;timestamp;P1;durP1;ratioP1;P2;durP2;ratioP2
51862;SDS011;37900;52.996;6.278;2023-07-16T00:01:35;3.83;;;2.20;;
51862;SDS011;37900;52.996;6.278;2023-07-16T00:04:01;3.30;;;2.22;;
51862;SDS011;37900;52.996;6.278;2023-07-16T00:06:27;2.80;;;2.13;;
51862;SDS011;37900;52.996;6.278;2023-07-16T00:08:52;4.30;;;2.10;;
51862;SDS011;37900;52.996;6.278;2023-07-16T00:11:18;3.83;;;2.17;;
51862;SDS011;37900;52.996;6.278;2023-07-16T00:13:43;5.28;;;3.25;;
51862;SDS011;37900;52.996;6.278;2023-07-16T00:16:12;3.10;;;2.00;;
51862;SDS011;37900;52.996;6.278;2023-07-16T00:18:38;3.58;;;2.35;;
51862;SDS011;37900;52.996;6.278;2023-07-16T00:21:04;3.78;;;2.72;;
51862;SDS011;37900;52.996;6.278;2023-07-16T00:23:30;3.67;;;2.22;;
51862;SDS011;37900;52.996;6.278;2023-07-16T00:25:56;3.53;;;2.25;;
51862;SDS011;37900;52.996;6.278;2023-07-16T00:28:22;4.65;;;2.53;;
51862;SDS011;37900;52.996;6.278;2023-07-16T00:30:47;5.05;;;2.35;;
51862;SDS011;37900;52.996;6.278;2023-07-16T00:33:13;4.68;;;2.25;;
51862;SDS011;37900;52.996;6.278;2023-07-16T00:35:39;4.25;;;2.72;;
51862;SDS011;37900;52.996;6.278;2023-07-16T00:38:11;3.92;;;2.47;;
51862;SDS011;37900;52.996;6.278;2023-07-16T00:40:36;3.50;;;2.10;;
51862;SDS011;37900;52.996;6.278;2023-07-16T00:43:02;4.25;;;2.38;;
51862;SDS011;37900;52.996;6.278;2023-07-16T00:45:29;3.28;;;2.00;;
51862;SDS011;37900;52.996;6.278;2023-07-16T00:47:55;3.10;;;2.20;;
51862;SDS011;37900;52.996;6.278;2023-07-16T00:50:21;3.63;;;2.22;;
51862;SDS011;37900;52.996;6.278;2023-07-16T00:52:46;3.72;;;2.38;;
51862;SDS011;37900;52.996;6.278;2023-07-16T00:55:12;4.25;;;2.67;;
51862;SDS011;37900;52.996;6.278;2023-07-16T00:57:38;4.35;;;2.60;;
51862;SDS011;37900;52.996;6.278;2023-07-16T01:00:05;3.35;;;2.30;;
51862;SDS011;37900;52.996;6.278;2023-07-16T01:02:31;3.60;;;2.38;;
51862;SDS011;37900;52.996;6.278;2023-07-16T01:04:57;4.18;;;2.42;;
51862;SDS011;37900;52.996;6.278;2023-07-16T01:07:24;3.50;;;2.30;;
51862;SDS011;37900;52.996;6.278;2023-07-16T01:09:52;2.67;;;2.05;;
51862;SDS011;37900;52.996;6.278;2023-07-16T01:12:20;3.65;;;1.83;;
51862;SDS011;37900;52.996;6.278;2023-07-16T01:14:47;3.22;;;2.28;;
51862;SDS011;37900;52.996;6.278;2023-07-16T01:19:40;3.60;;;2.30;;
51862;SDS011;37900;52.996;6.278;2023-07-16T01:25:05;3.92;;;2.00;;
51862;SDS011;37900;52.996;6.278;2023-07-16T01:30:13;2.90;;;2.20;;
51862;SDS011;37900;52.996;6.278;2023-07-16T01:32:43;3.17;;;2.10;;
51862;SDS011;37900;52.996;6.278;2023-07-16T01:35:10;2.80;;;1.95;;
51862;SDS011;37900;52.996;6.278;2023-07-16T01:37:37;4.30;;;2.28;;
51862;SDS011;37900;52.996;6.278;2023-07-16T01:40:03;3.05;;;1.95;;
51862;SDS011;37900;52.996;6.278;2023-07-16T01:42:32;3.08;;;2.00;;
51862;SDS011;37900;52.996;6.278;2023-07-16T01:44:58;3.53;;;2.08;;
51862;SDS011;37900;52.996;6.278;2023-07-16T01:47:24;3.47;;;2.33;;
51862;SDS011;37900;52.996;6.278;2023-07-16T01:49:54;4.40;;;2.15;;
51862;SDS011;37900;52.996;6.278;2023-07-16T01:52:20;3.08;;;2.30;;
51862;SDS011;37900;52.996;6.278;2023-07-16T01:54:46;2.28;;;1.88;;
51862;SDS011;37900;52.996;6.278;2023-07-16T01:57:12;3.07;;;2.27;;
51862;SDS011;37900;52.996;6.278;2023-07-16T01:59:38;3.15;;;2.17;;
51862;SDS011;37900;52.996;6.278;2023-07-16T02:02:04;4.15;;;2.42;;
51862;SDS011;37900;52.996;6.278;2023-07-16T02:04:30;3.95;;;2.58;;
51862;SDS011;37900;52.996;6.278;2023-07-16T02:06:56;4.72;;;2.38;;
51862;SDS011;37900;52.996;6.278;2023-07-16T02:09:21;2.05;;;1.70;;
51862;SDS011;37900;52.996;6.278;2023-07-16T02:11:47;3.63;;;2.17;;
51862;SDS011;37900;52.996;6.278;2023-07-16T02:14:13;3.25;;;2.03;;
51862;SDS011;37900;52.996;6.278;2023-07-16T02:16:41;2.65;;;1.67;;
51862;SDS011;37900;52.996;6.278;2023-07-16T02:19:06;2.65;;;1.55;;
51862;SDS011;37900;52.996;6.278;2023-07-16T02:21:32;4.07;;;2.10;;
51862;SDS011;37900;52.996;6.278;2023-07-16T02:23:58;2.58;;;1.70;;
51862;SDS011;37900;52.996;6.278;2023-07-16T02:26:24;2.92;;;1.80;;
51862;SDS011;37900;52.996;6.278;2023-07-16T02:28:50;2.58;;;1.80;;
51862;SDS011;37900;52.996;6.278;2023-07-16T02:31:16;3.92;;;2.22;;
51862;SDS011;37900;52.996;6.278;2023-07-16T02:33:41;3.25;;;2.08;;
51862;SDS011;37900;52.996;6.278;2023-07-16T02:36:07;3.90;;;2.00;;
51862;SDS011;37900;52.996;6.278;2023-07-16T02:38:33;3.28;;;2.28;;
51862;SDS011;37900;52.996;6.278;2023-07-16T02:40:59;3.95;;;2.10;;
51862;SDS011;37900;52.996;6.278;2023-07-16T02:43:24;3.85;;;2.15;;
51862;SDS011;37900;52.996;6.278;2023-07-16T02:45:50;2.85;;;2.03;;
51862;SDS011;37900;52.996;6.278;2023-07-16T02:48:16;2.55;;;1.60;;
51862;SDS011;37900;52.996;6.278;2023-07-16T02:50:41;3.13;;;1.95;;
51862;SDS011;37900;52.996;6.278;2023-07-16T02:53:07;2.78;;;2.22;;
51862;SDS011;37900;52.996;6.278;2023-07-16T02:55:36;3.17;;;1.80;;
51862;SDS011;37900;52.996;6.278;2023-07-16T02:58:02;3.55;;;2.38;;
51862;SDS011;37900;52.996;6.278;2023-07-16T03:00:30;3.78;;;2.05;;
51862;SDS011;37900;52.996;6.278;2023-07-16T03:05:23;3.60;;;2.00;;
51862;SDS011;37900;52.996;6.278;2023-07-16T03:07:49;2.67;;;2.00;;
51862;SDS011;37900;52.996;6.278;2023-07-16T03:10:15;3.60;;;2.35;;
51862;SDS011;37900;52.996;6.278;2023-07-16T03:12:41;4.22;;;2.22;;
51862;SDS011;37900;52.996;6.278;2023-07-16T03:15:07;3.45;;;2.03;;
51862;SDS011;37900;52.996;6.278;2023-07-16T03:17:33;3.53;;;2.00;;
51862;SDS011;37900;52.996;6.278;2023-07-16T03:19:59;2.65;;;1.70;;
51862;SDS011;37900;52.996;6.278;2023-07-16T03:22:24;3.45;;;2.30;;
51862;SDS011;37900;52.996;6.278;2023-07-16T03:24:50;3.97;;;2.15;;
51862;SDS011;37900;52.996;6.278;2023-07-16T03:27:16;3.20;;;1.75;;
51862;SDS011;37900;52.996;6.278;2023-07-16T03:29:42;2.40;;;1.90;;
51862;SDS011;37900;52.996;6.278;2023-07-16T03:32:07;4.22;;;2.55;;
51862;SDS011;37900;52.996;6.278;2023-07-16T03:34:33;2.80;;;2.15;;
51862;SDS011;37900;52.996;6.278;2023-07-16T03:36:59;4.07;;;2.22;;
51862;SDS011;37900;52.996;6.278;2023-07-16T03:39:25;2.63;;;2.03;;
51862;SDS011;37900;52.996;6.278;2023-07-16T03:41:50;2.53;;;2.00;;
51862;SDS011;37900;52.996;6.278;2023-07-16T03:44:16;2.92;;;2.05;;
51862;SDS011;37900;52.996;6.278;2023-07-16T03:46:42;2.80;;;2.03;;
51862;SDS011;37900;52.996;6.278;2023-07-16T03:49:07;3.90;;;2.33;;
51862;SDS011;37900;52.996;6.278;2023-07-16T03:51:33;3.63;;;1.80;;
51862;SDS011;37900;52.996;6.278;2023-07-16T03:53:59;4.38;;;2.85;;
51862;SDS011;37900;52.996;6.278;2023-07-16T03:56:25;3.97;;;2.25;;
51862;SDS011;37900;52.996;6.278;2023-07-16T03:58:51;3.28;;;1.92;;
51862;SDS011;37900;52.996;6.278;2023-07-16T04:01:17;2.33;;;1.80;;
51862;SDS011;37900;52.996;6.278;2023-07-16T04:03:42;3.88;;;2.40;;
51862;SDS011;37900;52.996;6.278;2023-07-16T04:06:09;2.53;;;1.90;;
51862;SDS011;37900;52.996;6.278;2023-07-16T04:08:35;3.33;;;2.17;;
51862;SDS011;37900;52.996;6.278;2023-07-16T04:11:02;3.55;;;2.38;;
51862;SDS011;37900;52.996;6.278;2023-07-16T04:13:29;3.85;;;2.30;;
51862;SDS011;37900;52.996;6.278;2023-07-16T04:15:55;2.65;;;1.92;;
51862;SDS011;37900;52.996;6.278;2023-07-16T04:20:48;3.47;;;2.17;;
51862;SDS011;37900;52.996;6.278;2023-07-16T04:23:13;5.43;;;3.00;;
51862;SDS011;37900;52.996;6.278;2023-07-16T04:25:39;4.50;;;2.20;;
51862;SDS011;37900;52.996;6.278;2023-07-16T04:28:05;3.13;;;2.38;;
51862;SDS011;37900;52.996;6.278;2023-07-16T04:30:31;3.13;;;2.08;;
51862;SDS011;37900;52.996;6.278;2023-07-16T04:32:56;3.33;;;2.17;;
51862;SDS011;37900;52.996;6.278;2023-07-16T04:35:22;2.55;;;2.08;;
51862;SDS011;37900;52.996;6.278;2023-07-16T04:37:48;3.28;;;2.50;;
51862;SDS011;37900;52.996;6.278;2023-07-16T04:40:14;3.40;;;2.20;;
51862;SDS011;37900;52.996;6.278;2023-07-16T04:42:39;2.45;;;2.10;;
51862;SDS011;37900;52.996;6.278;2023-07-16T04:45:05;3.13;;;2.05;;
51862;SDS011;37900;52.996;6.278;2023-07-16T04:47:31;2.50;;;2.17;;
51862;SDS011;37900;52.996;6.278;2023-07-16T04:50:00;4.65;;;3.15;;
51862;SDS011;37900;52.996;6.278;2023-07-16T04:52:26;3.83;;;2.55;;
51862;SDS011;37900;52.996;6.278;2023-07-16T04:54:51;3.60;;;2.22;;
51862;SDS011;37900;52.996;6.278;2023-07-16T04:57:17;2.95;;;2.20;;
51862;SDS011;37900;52.996;6.278;2023-07-16T04:59:43;3.83;;;2.40;;
51862;SDS011;37900;52.996;6.278;2023-07-16T05:02:08;2.67;;;2.10;;
51862;SDS011;37900;52.996;6.278;2023-07-16T05:04:34;2.75;;;2.00;;
51862;SDS011;37900;52.996;6.278;2023-07-16T05:07:01;4.32;;;2.30;;
51862;SDS011;37900;52.996;6.278;2023-07-16T05:09:29;2.92;;;2.03;;
51862;SDS011;37900;52.996;6.278;2023-07-16T05:11:55;3.05;;;2.30;;
51862;SDS011;37900;52.996;6.278;2023-07-16T05:14:21;3.95;;;2.45;;
51862;SDS011;37900;52.996;6.278;2023-07-16T05:16:47;3.30;;;2.13;;
51862;SDS011;37900;52.996;6.278;2023-07-16T05:19:13;4.85;;;2.20;;
51862;SDS011;37900;52.996;6.278;2023-07-16T05:21:38;3.67;;;2.30;;
51862;SDS011;37900;52.996;6.278;2023-07-16T05:24:04;3.45;;;2.20;;
51862;SDS011;37900;52.996;6.278;2023-07-16T05:26:30;4.25;;;2.47;;
51862;SDS011;37900;52.996;6.278;2023-07-16T05:28:56;3.03;;;2.25;;
51862;SDS011;37900;52.996;6.278;2023-07-16T05:31:22;5.05;;;2.53;;
51862;SDS011;37900;52.996;6.278;2023-07-16T05:33:47;3.90;;;2.17;;
51862;SDS011;37900;52.996;6.278;2023-07-16T05:36:13;5.40;;;2.47;;
51862;SDS011;37900;52.996;6.278;2023-07-16T05:38:39;3.53;;;2.25;;
51862;SDS011;37900;52.996;6.278;2023-07-16T05:41:04;2.65;;;1.90;;
51862;SDS011;37900;52.996;6.278;2023-07-16T05:43:31;3.58;;;2.25;;
51862;SDS011;37900;52.996;6.278;2023-07-16T05:45:57;3.53;;;2.40;;
51862;SDS011;37900;52.996;6.278;2023-07-16T05:48:23;3.33;;;2.15;;
51862;SDS011;37900;52.996;6.278;2023-07-16T05:50:49;3.85;;;2.40;;
51862;SDS011;37900;52.996;6.278;2023-07-16T05:53:15;4.00;;;2.70;;
51862;SDS011;37900;52.996;6.278;2023-07-16T05:55:41;3.47;;;2.42;;
51862;SDS011;37900;52.996;6.278;2023-07-16T05:58:07;3.00;;;2.50;;
51862;SDS011;37900;52.996;6.278;2023-07-16T06:00:34;4.03;;;2.47;;
51862;SDS011;37900;52.996;6.278;2023-07-16T06:03:00;2.97;;;2.00;;
51862;SDS011;37900;52.996;6.278;2023-07-16T06:05:27;3.50;;;2.38;;
51862;SDS011;37900;52.996;6.278;2023-07-16T06:07:57;3.40;;;2.30;;
51862;SDS011;37900;52.996;6.278;2023-07-16T06:10:23;3.42;;;2.42;;
51862;SDS011;37900;52.996;6.278;2023-07-16T06:12:49;4.32;;;2.50;;
51862;SDS011;37900;52.996;6.278;2023-07-16T06:15:14;3.97;;;2.40;;
51862;SDS011;37900;52.996;6.278;2023-07-16T06:17:40;4.78;;;2.55;;
51862;SDS011;37900;52.996;6.278;2023-07-16T06:20:06;5.55;;;2.88;;
51862;SDS011;37900;52.996;6.278;2023-07-16T06:24:58;3.55;;;2.35;;
51862;SDS011;37900;52.996;6.278;2023-07-16T06:27:24;3.08;;;2.28;;
51862;SDS011;37900;52.996;6.278;2023-07-16T06:29:50;3.28;;;2.42;;
51862;SDS011;37900;52.996;6.278;2023-07-16T06:32:16;4.50;;;2.83;;
51862;SDS011;37900;52.996;6.278;2023-07-16T06:34:42;3.63;;;2.50;;
51862;SDS011;37900;52.996;6.278;2023-07-16T06:37:08;3.80;;;2.40;;
51862;SDS011;37900;52.996;6.278;2023-07-16T06:39:33;5.25;;;2.53;;
51862;SDS011;37900;52.996;6.278;2023-07-16T06:41:59;3.55;;;2.55;;
51862;SDS011;37900;52.996;6.278;2023-07-16T06:44:25;5.40;;;2.80;;
51862;SDS011;37900;52.996;6.278;2023-07-16T06:46:51;4.30;;;2.25;;
51862;SDS011;37900;52.996;6.278;2023-07-16T06:49:17;2.85;;;1.92;;
51862;SDS011;37900;52.996;6.278;2023-07-16T06:51:43;3.33;;;2.30;;
51862;SDS011;37900;52.996;6.278;2023-07-16T06:54:09;3.63;;;2.38;;
51862;SDS011;37900;52.996;6.278;2023-07-16T06:56:35;3.45;;;2.45;;
51862;SDS011;37900;52.996;6.278;2023-07-16T06:59:00;4.85;;;2.38;;
51862;SDS011;37900;52.996;6.278;2023-07-16T07:01:26;3.25;;;2.33;;
51862;SDS011;37900;52.996;6.278;2023-07-16T07:03:53;3.60;;;2.35;;
51862;SDS011;37900;52.996;6.278;2023-07-16T07:06:19;4.57;;;2.70;;
51862;SDS011;37900;52.996;6.278;2023-07-16T07:08:46;4.30;;;2.92;;
51862;SDS011;37900;52.996;6.278;2023-07-16T07:11:12;3.83;;;2.63;;
51862;SDS011;37900;52.996;6.278;2023-07-16T07:13:38;5.10;;;2.42;;
51862;SDS011;37900;52.996;6.278;2023-07-16T07:16:04;2.97;;;2.25;;
51862;SDS011;37900;52.996;6.278;2023-07-16T07:18:29;2.83;;;2.13;;
51862;SDS011;37900;52.996;6.278;2023-07-16T07:20:55;4.65;;;3.15;;
51862;SDS011;37900;52.996;6.278;2023-07-16T07:23:21;3.75;;;2.72;;
51862;SDS011;37900;52.996;6.278;2023-07-16T07:25:50;3.33;;;2.30;;
51862;SDS011;37900;52.996;6.278;2023-07-16T07:28:16;3.30;;;2.70;;
51862;SDS011;37900;52.996;6.278;2023-07-16T07:30:43;4.90;;;2.78;;
51862;SDS011;37900;52.996;6.278;2023-07-16T07:33:09;4.05;;;2.80;;
51862;SDS011;37900;52.996;6.278;2023-07-16T07:35:35;3.90;;;2.75;;
51862;SDS011;37900;52.996;6.278;2023-07-16T07:38:01;2.90;;;2.40;;
51862;SDS011;37900;52.996;6.278;2023-07-16T07:40:26;3.70;;;2.60;;
51862;SDS011;37900;52.996;6.278;2023-07-16T07:42:52;3.88;;;2.47;;
51862;SDS011;37900;52.996;6.278;2023-07-16T07:45:18;4.15;;;2.50;;
51862;SDS011;37900;52.996;6.278;2023-07-16T07:47:43;4.70;;;3.28;;
51862;SDS011;37900;52.996;6.278;2023-07-16T07:50:09;3.85;;;2.50;;
51862;SDS011;37900;52.996;6.278;2023-07-16T07:52:35;3.45;;;2.40;;
51862;SDS011;37900;52.996;6.278;2023-07-16T07:55:01;4.40;;;2.80;;
51862;SDS011;37900;52.996;6.278;2023-07-16T07:57:28;4.78;;;2.88;;
51862;SDS011;37900;52.996;6.278;2023-07-16T07:59:54;4.60;;;2.47;;
51862;SDS011;37900;52.996;6.278;2023-07-16T08:02:23;3.70;;;2.50;;
51862;SDS011;37900;52.996;6.278;2023-07-16T08:04:52;4.50;;;3.00;;
51862;SDS011;37900;52.996;6.278;2023-07-16T08:07:19;5.55;;;3.17;;
51862;SDS011;37900;52.996;6.278;2023-07-16T08:09:45;4.47;;;3.20;;
51862;SDS011;37900;52.996;6.278;2023-07-16T08:12:12;3.67;;;2.65;;
51862;SDS011;37900;52.996;6.278;2023-07-16T08:14:38;4.75;;;3.03;;
51862;SDS011;37900;52.996;6.278;2023-07-16T08:17:04;4.45;;;3.00;;
51862;SDS011;37900;52.996;6.278;2023-07-16T08:19:30;4.20;;;3.03;;
51862;SDS011;37900;52.996;6.278;2023-07-16T08:21:56;3.22;;;2.50;;
51862;SDS011;37900;52.996;6.278;2023-07-16T08:24:21;3.88;;;2.95;;
51862;SDS011;37900;52.996;6.278;2023-07-16T08:26:47;4.07;;;2.88;;
51862;SDS011;37900;52.996;6.278;2023-07-16T08:29:13;3.88;;;2.80;;
51862;SDS011;37900;52.996;6.278;2023-07-16T08:31:38;3.63;;;2.70;;
51862;SDS011;37900;52.996;6.278;2023-07-16T08:34:05;4.00;;;2.60;;
51862;SDS011;37900;52.996;6.278;2023-07-16T08:36:32;5.45;;;3.25;;
51862;SDS011;37900;52.996;6.278;2023-07-16T08:38:58;3.83;;;2.85;;
51862;SDS011;37900;52.996;6.278;2023-07-16T08:41:24;4.05;;;2.60;;
51862;SDS011;37900;52.996;6.278;2023-07-16T08:43:50;4.00;;;3.00;;
51862;SDS011;37900;52.996;6.278;2023-07-16T08:46:16;4.40;;;2.72;;
51862;SDS011;37900;52.996;6.278;2023-07-16T08:48:42;5.10;;;3.28;;
51862;SDS011;37900;52.996;6.278;2023-07-16T08:51:10;5.95;;;2.88;;
51862;SDS011;37900;52.996;6.278;2023-07-16T08:53:38;4.38;;;2.72;;
51862;SDS011;37900;52.996;6.278;2023-07-16T08:56:04;5.82;;;3.50;;
51862;SDS011;37900;52.996;6.278;2023-07-16T08:58:30;3.90;;;2.92;;
51862;SDS011;37900;52.996;6.278;2023-07-16T09:00:56;4.70;;;2.58;;
51862;SDS011;37900;52.996;6.278;2023-07-16T09:03:23;3.57;;;2.83;;
51862;SDS011;37900;52.996;6.278;2023-07-16T09:05:49;5.88;;;2.92;;
51862;SDS011;37900;52.996;6.278;2023-07-16T09:08:15;3.63;;;2.60;;
51862;SDS011;37900;52.996;6.278;2023-07-16T09:10:41;3.88;;;2.80;;
51862;SDS011;37900;52.996;6.278;2023-07-16T09:13:07;3.85;;;2.70;;
51862;SDS011;37900;52.996;6.278;2023-07-16T09:15:33;4.50;;;2.63;;
51862;SDS011;37900;52.996;6.278;2023-07-16T09:17:59;4.97;;;2.78;;
51862;SDS011;37900;52.996;6.278;2023-07-16T09:20:25;5.50;;;2.90;;
51862;SDS011;37900;52.996;6.278;2023-07-16T09:25:28;4.53;;;2.95;;
51862;SDS011;37900;52.996;6.278;2023-07-16T09:27:55;4.60;;;3.33;;
51862;SDS011;37900;52.996;6.278;2023-07-16T09:30:22;7.95;;;3.92;;
51862;SDS011;37900;52.996;6.278;2023-07-16T09:32:48;5.57;;;3.45;;
51862;SDS011;37900;52.996;6.278;2023-07-16T09:35:14;6.60;;;3.40;;
51862;SDS011;37900;52.996;6.278;2023-07-16T09:37:41;5.40;;;3.58;;
51862;SDS011;37900;52.996;6.278;2023-07-16T09:40:08;5.13;;;3.38;;
51862;SDS011;37900;52.996;6.278;2023-07-16T09:42:39;5.35;;;3.22;;
51862;SDS011;37900;52.996;6.278;2023-07-16T09:45:07;5.45;;;3.55;;
51862;SDS011;37900;52.996;6.278;2023-07-16T09:47:37;7.07;;;3.60;;
51862;SDS011;37900;52.996;6.278;2023-07-16T09:50:03;5.28;;;3.67;;
51862;SDS011;37900;52.996;6.278;2023-07-16T09:52:30;6.13;;;3.80;;
51862;SDS011;37900;52.996;6.278;2023-07-16T09:54:57;5.10;;;3.63;;
51862;SDS011;37900;52.996;6.278;2023-07-16T09:57:26;4.22;;;3.10;;
51862;SDS011;37900;52.996;6.278;2023-07-16T09:59:55;5.13;;;3.60;;
51862;SDS011;37900;52.996;6.278;2023-07-16T10:02:23;5.20;;;3.15;;
51862;SDS011;37900;52.996;6.278;2023-07-16T10:04:49;4.32;;;2.90;;
51862;SDS011;37900;52.996;6.278;2023-07-16T10:07:22;4.47;;;3.30;;
51862;SDS011;37900;52.996;6.278;2023-07-16T10:09:53;3.92;;;2.92;;
51862;SDS011;37900;52.996;6.278;2023-07-16T10:12:21;5.82;;;3.08;;
51862;SDS011;37900;52.996;6.278;2023-07-16T10:14:51;6.30;;;3.42;;
51862;SDS011;37900;52.996;6.278;2023-07-16T10:17:19;5.35;;;3.60;;
51862;SDS011;37900;52.996;6.278;2023-07-16T10:19:49;5.97;;;2.95;;
51862;SDS011;37900;52.996;6.278;2023-07-16T10:22:35;5.63;;;3.17;;
51862;SDS011;37900;52.996;6.278;2023-07-16T10:27:49;3.15;;;2.45;;
51862;SDS011;37900;52.996;6.278;2023-07-16T10:30:16;4.00;;;2.80;;
51862;SDS011;37900;52.996;6.278;2023-07-16T10:32:43;4.13;;;2.67;;
51862;SDS011;37900;52.996;6.278;2023-07-16T10:35:09;5.32;;;2.97;;
51862;SDS011;37900;52.996;6.278;2023-07-16T10:37:36;4.72;;;2.90;;
51862;SDS011;37900;52.996;6.278;2023-07-16T10:40:02;4.80;;;3.35;;
51862;SDS011;37900;52.996;6.278;2023-07-16T10:42:29;4.35;;;2.80;;
51862;SDS011;37900;52.996;6.278;2023-07-16T10:44:59;3.10;;;2.72;;
51862;SDS011;37900;52.996;6.278;2023-07-16T10:49:59;5.75;;;3.20;;
51862;SDS011;37900;52.996;6.278;2023-07-16T10:52:25;4.15;;;3.05;;
51862;SDS011;37900;52.996;6.278;2023-07-16T10:54:52;3.57;;;2.83;;
51862;SDS011;37900;52.996;6.278;2023-07-16T10:57:22;4.03;;;3.05;;
51862;SDS011;37900;52.996;6.278;2023-07-16T10:59:52;5.30;;;3.47;;
51862;SDS011;37900;52.996;6.278;2023-07-16T11:02:20;6.28;;;2.72;;
51862;SDS011;37900;52.996;6.278;2023-07-16T11:04:47;4.68;;;3.25;;
51862;SDS011;37900;52.996;6.278;2023-07-16T11:07:14;3.35;;;2.45;;
51862;SDS011;37900;52.996;6.278;2023-07-16T11:09:50;4.63;;;2.95;;
51862;SDS011;37900;52.996;6.278;2023-07-16T11:12:18;4.57;;;2.50;;
51862;SDS011;37900;52.996;6.278;2023-07-16T11:14:50;4.38;;;3.40;;
51862;SDS011;37900;52.996;6.278;2023-07-16T11:17:19;4.25;;;3.00;;
51862;SDS011;37900;52.996;6.278;2023-07-16T11:19:47;3.70;;;2.80;;
51862;SDS011;37900;52.996;6.278;2023-07-16T11:22:13;3.75;;;2.72;;
51862;SDS011;37900;52.996;6.278;2023-07-16T11:24:40;4.20;;;2.90;;
51862;SDS011;37900;52.996;6.278;2023-07-16T11:27:18;4.53;;;2.70;;
51862;SDS011;37900;52.996;6.278;2023-07-16T11:29:45;4.20;;;3.05;;
51862;SDS011;37900;52.996;6.278;2023-07-16T11:34:51;5.57;;;3.25;;
51862;SDS011;37900;52.996;6.278;2023-07-16T11:37:17;3.72;;;2.85;;
51862;SDS011;37900;52.996;6.278;2023-07-16T11:39:43;4.45;;;3.05;;
51862;SDS011;37900;52.996;6.278;2023-07-16T11:42:10;3.22;;;2.85;;
51862;SDS011;37900;52.996;6.278;2023-07-16T11:44:36;3.25;;;2.67;;
51862;SDS011;37900;52.996;6.278;2023-07-16T11:47:03;4.20;;;3.10;;
51862;SDS011;37900;52.996;6.278;2023-07-16T11:51:56;3.15;;;2.53;;
51862;SDS011;37900;52.996;6.278;2023-07-16T11:56:48;3.90;;;2.88;;
51862;SDS011;37900;52.996;6.278;2023-07-16T11:59:15;3.72;;;3.05;;
51862;SDS011;37900;52.996;6.278;2023-07-16T12:01:45;3.95;;;3.05;;
51862;SDS011;37900;52.996;6.278;2023-07-16T12:04:12;4.25;;;3.20;;
51862;SDS011;37900;52.996;6.278;2023-07-16T12:06:38;4.07;;;2.95;;
51862;SDS011;37900;52.996;6.278;2023-07-16T12:09:03;3.28;;;2.83;;
51862;SDS011;37900;52.996;6.278;2023-07-16T12:11:29;4.13;;;3.03;;
51862;SDS011;37900;52.996;6.278;2023-07-16T12:13:55;6.18;;;2.95;;
51862;SDS011;37900;52.996;6.278;2023-07-16T12:16:21;4.90;;;3.42;;
51862;SDS011;37900;52.996;6.278;2023-07-16T12:18:46;4.13;;;3.05;;
51862;SDS011;37900;52.996;6.278;2023-07-16T12:21:12;5.05;;;3.03;;
51862;SDS011;37900;52.996;6.278;2023-07-16T12:23:38;3.45;;;2.92;;
51862;SDS011;37900;52.996;6.278;2023-07-16T12:26:03;4.35;;;3.13;;
51862;SDS011;37900;52.996;6.278;2023-07-16T12:28:29;3.97;;;3.35;;
51862;SDS011;37900;52.996;6.278;2023-07-16T12:30:55;4.13;;;3.20;;
51862;SDS011;37900;52.996;6.278;2023-07-16T12:33:20;3.50;;;2.90;;
51862;SDS011;37900;52.996;6.278;2023-07-16T12:35:46;4.45;;;3.30;;
51862;SDS011;37900;52.996;6.278;2023-07-16T12:38:12;4.68;;;3.05;;
51862;SDS011;37900;52.996;6.278;2023-07-16T12:40:38;3.90;;;3.20;;
51862;SDS011;37900;52.996;6.278;2023-07-16T12:43:06;4.00;;;3.28;;
51862;SDS011;37900;52.996;6.278;2023-07-16T12:45:32;3.55;;;2.90;;
51862;SDS011;37900;52.996;6.278;2023-07-16T12:47:58;4.30;;;2.67;;
51862;SDS011;37900;52.996;6.278;2023-07-16T12:50:24;4.18;;;3.03;;
51862;SDS011;37900;52.996;6.278;2023-07-16T12:52:51;4.43;;;3.08;;
51862;SDS011;37900;52.996;6.278;2023-07-16T12:55:17;4.15;;;3.28;;
51862;SDS011;37900;52.996;6.278;2023-07-16T12:57:44;4.35;;;2.83;;
51862;SDS011;37900;52.996;6.278;2023-07-16T13:00:10;4.22;;;2.83;;
51862;SDS011;37900;52.996;6.278;2023-07-16T13:02:36;4.35;;;3.25;;
51862;SDS011;37900;52.996;6.278;2023-07-16T13:05:02;4.00;;;3.00;;
51862;SDS011;37900;52.996;6.278;2023-07-16T13:07:28;4.03;;;3.03;;
51862;SDS011;37900;52.996;6.278;2023-07-16T13:12:21;4.43;;;2.92;;
51862;SDS011;37900;52.996;6.278;2023-07-16T13:14:47;4.65;;;2.92;;
51862;SDS011;37900;52.996;6.278;2023-07-16T13:17:12;4.28;;;3.08;;
51862;SDS011;37900;52.996;6.278;2023-07-16T13:19:40;3.72;;;2.65;;
51862;SDS011;37900;52.996;6.278;2023-07-16T13:22:05;3.08;;;2.65;;
51862;SDS011;37900;52.996;6.278;2023-07-16T13:24:31;4.22;;;2.50;;
51862;SDS011;37900;52.996;6.278;2023-07-16T13:26:57;5.10;;;3.47;;
51862;SDS011;37900;52.996;6.278;2023-07-16T13:29:22;3.35;;;2.90;;
51862;SDS011;37900;52.996;6.278;2023-07-16T13:31:48;3.50;;;2.70;;
51862;SDS011;37900;52.996;6.278;2023-07-16T13:34:14;4.05;;;3.15;;
51862;SDS011;37900;52.996;6.278;2023-07-16T13:36:39;4.63;;;2.75;;
51862;SDS011;37900;52.996;6.278;2023-07-16T13:39:05;5.35;;;2.95;;
51862;SDS011;37900;52.996;6.278;2023-07-16T13:41:32;5.75;;;3.03;;
51862;SDS011;37900;52.996;6.278;2023-07-16T13:43:58;4.07;;;2.97;;
51862;SDS011;37900;52.996;6.278;2023-07-16T13:46:23;3.25;;;2.58;;
51862;SDS011;37900;52.996;6.278;2023-07-16T13:48:49;5.88;;;3.22;;
51862;SDS011;37900;52.996;6.278;2023-07-16T13:51:15;4.03;;;2.78;;
51862;SDS011;37900;52.996;6.278;2023-07-16T13:53:40;3.85;;;3.00;;
51862;SDS011;37900;52.996;6.278;2023-07-16T13:56:06;3.75;;;3.00;;
51862;SDS011;37900;52.996;6.278;2023-07-16T13:58:33;4.07;;;3.00;;
51862;SDS011;37900;52.996;6.278;2023-07-16T14:00:59;5.50;;;3.35;;
51862;SDS011;37900;52.996;6.278;2023-07-16T14:03:25;4.57;;;2.60;;
51862;SDS011;37900;52.996;6.278;2023-07-16T14:05:51;4.22;;;2.90;;
51862;SDS011;37900;52.996;6.278;2023-07-16T14:08:17;4.57;;;3.20;;
51862;SDS011;37900;52.996;6.278;2023-07-16T14:10:42;3.85;;;3.35;;
51862;SDS011;37900;52.996;6.278;2023-07-16T14:13:08;4.80;;;2.88;;
51862;SDS011;37900;52.996;6.278;2023-07-16T14:15:34;4.30;;;2.70;;
51862;SDS011;37900;52.996;6.278;2023-07-16T14:18:00;6.22;;;3.25;;
51862;SDS011;37900;52.996;6.278;2023-07-16T14:20:26;6.15;;;2.97;;
51862;SDS011;37900;52.996;6.278;2023-07-16T14:22:51;4.72;;;2.70;;
51862;SDS011;37900;52.996;6.278;2023-07-16T14:25:17;5.20;;;2.50;;
51862;SDS011;37900;52.996;6.278;2023-07-16T14:27:43;4.82;;;3.00;;
51862;SDS011;37900;52.996;6.278;2023-07-16T14:30:09;4.22;;;2.58;;
51862;SDS011;37900;52.996;6.278;2023-07-16T14:32:36;4.25;;;2.90;;
51862;SDS011;37900;52.996;6.278;2023-07-16T14:35:02;6.50;;;3.50;;
51862;SDS011;37900;52.996;6.278;2023-07-16T14:37:28;4.78;;;2.60;;
51862;SDS011;37900;52.996;6.278;2023-07-16T14:39:54;5.03;;;2.75;;
51862;SDS011;37900;52.996;6.278;2023-07-16T14:42:20;6.88;;;2.65;;
51862;SDS011;37900;52.996;6.278;2023-07-16T14:44:46;5.15;;;2.95;;
51862;SDS011;37900;52.996;6.278;2023-07-16T14:47:12;4.85;;;3.05;;
51862;SDS011;37900;52.996;6.278;2023-07-16T14:49:37;4.53;;;2.50;;
51862;SDS011;37900;52.996;6.278;2023-07-16T14:52:03;4.55;;;3.22;;
51862;SDS011;37900;52.996;6.278;2023-07-16T14:54:29;4.25;;;2.90;;
51862;SDS011;37900;52.996;6.278;2023-07-16T14:56:55;5.22;;;2.90;;
51862;SDS011;37900;52.996;6.278;2023-07-16T14:59:21;3.70;;;2.60;;
51862;SDS011;37900;52.996;6.278;2023-07-16T15:01:46;3.42;;;2.60;;
51862;SDS011;37900;52.996;6.278;2023-07-16T15:04:13;5.07;;;2.55;;
51862;SDS011;37900;52.996;6.278;2023-07-16T15:06:39;3.83;;;2.83;;
51862;SDS011;37900;52.996;6.278;2023-07-16T15:09:04;3.47;;;2.55;;
51862;SDS011;37900;52.996;6.278;2023-07-16T15:11:30;4.20;;;2.83;;
51862;SDS011;37900;52.996;6.278;2023-07-16T15:13:59;5.07;;;2.67;;
51862;SDS011;37900;52.996;6.278;2023-07-16T15:16:24;4.38;;;2.45;;